sensor_id;sensor_type;location;lat;lon;timestamp;P1;durP1;ratioP1;P2;durP2;ratioP2
54197;SDS011;40105;52.366;17.000;2023-05-10T00:05:20;11.07;;;4.03;;
54197;SDS011;40105;52.366;17.000;2023-05-10T00:07:45;9.37;;;4.50;;
54197;SDS011;40105;52.366;17.000;2023-05-10T00:10:11;10.47;;;4.30;;
54197;SDS011;40105;52.366;17.000;2023-05-10T00:12:36;13.07;;;4.47;;
54197;SDS011;40105;52.366;17.000;2023-05-10T00:15:01;8.63;;;4.18;;
54197;SDS011;40105;52.366;17.000;2023-05-10T00:17:27;29.17;;;5.95;;
54197;SDS011;40105;52.366;17.000;2023-05-10T00:19:52;9.03;;;3.97;;
54197;SDS011;40105;52.366;17.000;2023-05-10T00:22:18;12.60;;;4.67;;
54197;SDS011;40105;52.366;17.000;2023-05-10T00:24:43;12.27;;;4.07;;
54197;SDS011;40105;52.366;17.000;2023-05-10T00:27:08;11.40;;;4.17;;
54197;SDS011;40105;52.366;17.000;2023-05-10T00:29:33;8.73;;;4.20;;
54197;SDS011;40105;52.366;17.000;2023-05-10T00:31:58;18.50;;;4.83;;
54197;SDS011;40105;52.366;17.000;2023-05-10T00:34:23;14.70;;;4.50;;
54197;SDS011;40105;52.366;17.000;2023-05-10T00:36:49;7.68;;;3.75;;
54197;SDS011;40105;52.366;17.000;2023-05-10T00:39:14;10.67;;;4.00;;
54197;SDS011;40105;52.366;17.000;2023-05-10T00:41:40;8.90;;;3.97;;
54197;SDS011;40105;52.366;17.000;2023-05-10T00:44:05;8.15;;;4.22;;
54197;SDS011;40105;52.366;17.000;2023-05-10T00:46:30;13.15;;;4.40;;
54197;SDS011;40105;52.366;17.000;2023-05-10T00:48:55;11.23;;;4.13;;
54197;SDS011;40105;52.366;17.000;2023-05-10T00:51:21;17.55;;;4.30;;
54197;SDS011;40105;52.366;17.000;2023-05-10T00:53:46;15.80;;;4.30;;
54197;SDS011;40105;52.366;17.000;2023-05-10T00:56:11;10.60;;;3.87;;
54197;SDS011;40105;52.366;17.000;2023-05-10T00:58:37;7.50;;;3.83;;
54197;SDS011;40105;52.366;17.000;2023-05-10T01:01:03;11.23;;;4.43;;
54197;SDS011;40105;52.366;17.000;2023-05-10T01:03:29;7.22;;;4.22;;
54197;SDS011;40105;52.366;17.000;2023-05-10T01:05:54;14.60;;;4.50;;
54197;SDS011;40105;52.366;17.000;2023-05-10T01:08:20;10.90;;;4.30;;
54197;SDS011;40105;52.366;17.000;2023-05-10T01:10:45;10.65;;;4.28;;
54197;SDS011;40105;52.366;17.000;2023-05-10T01:13:11;10.93;;;4.95;;
54197;SDS011;40105;52.366;17.000;2023-05-10T01:15:37;8.85;;;4.10;;
54197;SDS011;40105;52.366;17.000;2023-05-10T01:18:02;6.72;;;3.85;;
54197;SDS011;40105;52.366;17.000;2023-05-10T01:20:29;8.90;;;4.57;;
54197;SDS011;40105;52.366;17.000;2023-05-10T01:35:47;8.55;;;3.88;;
54197;SDS011;40105;52.366;17.000;2023-05-10T01:43:08;7.07;;;3.80;;
54197;SDS011;40105;52.366;17.000;2023-05-10T01:45:41;11.57;;;4.15;;
54197;SDS011;40105;52.366;17.000;2023-05-10T01:48:10;11.10;;;4.05;;
54197;SDS011;40105;52.366;17.000;2023-05-10T01:50:36;10.02;;;4.35;;
54197;SDS011;40105;52.366;17.000;2023-05-10T01:53:02;7.85;;;3.80;;
54197;SDS011;40105;52.366;17.000;2023-05-10T01:55:32;10.18;;;4.30;;
54197;SDS011;40105;52.366;17.000;2023-05-10T01:58:05;11.82;;;4.18;;
54197;SDS011;40105;52.366;17.000;2023-05-10T02:00:31;8.88;;;4.60;;
54197;SDS011;40105;52.366;17.000;2023-05-10T02:02:56;12.07;;;4.50;;
54197;SDS011;40105;52.366;17.000;2023-05-10T02:05:22;10.98;;;4.28;;
54197;SDS011;40105;52.366;17.000;2023-05-10T02:07:47;12.25;;;4.25;;
54197;SDS011;40105;52.366;17.000;2023-05-10T02:10:13;7.55;;;4.20;;
54197;SDS011;40105;52.366;17.000;2023-05-10T02:12:40;13.40;;;4.75;;
54197;SDS011;40105;52.366;17.000;2023-05-10T02:15:06;10.82;;;4.70;;
54197;SDS011;40105;52.366;17.000;2023-05-10T02:17:32;13.98;;;4.32;;
54197;SDS011;40105;52.366;17.000;2023-05-10T02:19:59;28.38;;;4.78;;
54197;SDS011;40105;52.366;17.000;2023-05-10T02:22:25;7.72;;;4.25;;
54197;SDS011;40105;52.366;17.000;2023-05-10T02:24:51;12.85;;;5.07;;
54197;SDS011;40105;52.366;17.000;2023-05-10T02:27:17;15.70;;;4.20;;
54197;SDS011;40105;52.366;17.000;2023-05-10T02:29:43;9.55;;;4.45;;
54197;SDS011;40105;52.366;17.000;2023-05-10T02:32:09;10.15;;;3.88;;
54197;SDS011;40105;52.366;17.000;2023-05-10T02:34:35;33.35;;;3.92;;
54197;SDS011;40105;52.366;17.000;2023-05-10T02:37:01;15.00;;;4.43;;
54197;SDS011;40105;52.366;17.000;2023-05-10T02:39:27;59.55;;;5.75;;
54197;SDS011;40105;52.366;17.000;2023-05-10T02:41:53;9.15;;;4.13;;
54197;SDS011;40105;52.366;17.000;2023-05-10T02:44:20;7.93;;;3.25;;
54197;SDS011;40105;52.366;17.000;2023-05-10T02:46:45;6.32;;;3.15;;
54197;SDS011;40105;52.366;17.000;2023-05-10T02:49:10;7.97;;;3.33;;
54197;SDS011;40105;52.366;17.000;2023-05-10T02:51:37;8.27;;;3.22;;
54197;SDS011;40105;52.366;17.000;2023-05-10T02:54:07;9.55;;;4.50;;
54197;SDS011;40105;52.366;17.000;2023-05-10T02:56:34;9.68;;;4.63;;
54197;SDS011;40105;52.366;17.000;2023-05-10T02:59:00;5.88;;;3.28;;
54197;SDS011;40105;52.366;17.000;2023-05-10T03:01:25;7.10;;;3.47;;
54197;SDS011;40105;52.366;17.000;2023-05-10T03:03:51;12.60;;;4.17;;
54197;SDS011;40105;52.366;17.000;2023-05-10T03:06:16;9.47;;;3.37;;
54197;SDS011;40105;52.366;17.000;2023-05-10T03:08:42;10.82;;;3.15;;
54197;SDS011;40105;52.366;17.000;2023-05-10T03:16:14;8.18;;;3.75;;
54197;SDS011;40105;52.366;17.000;2023-05-10T03:21:11;9.50;;;3.72;;
54197;SDS011;40105;52.366;17.000;2023-05-10T03:23:43;8.02;;;3.28;;
54197;SDS011;40105;52.366;17.000;2023-05-10T03:26:09;10.35;;;3.45;;
54197;SDS011;40105;52.366;17.000;2023-05-10T03:28:34;6.35;;;3.10;;
54197;SDS011;40105;52.366;17.000;2023-05-10T03:31:00;11.23;;;4.72;;
54197;SDS011;40105;52.366;17.000;2023-05-10T03:33:26;11.20;;;4.03;;
54197;SDS011;40105;52.366;17.000;2023-05-10T03:35:51;7.83;;;3.87;;
54197;SDS011;40105;52.366;17.000;2023-05-10T03:38:16;7.57;;;3.77;;
54197;SDS011;40105;52.366;17.000;2023-05-10T03:40:41;7.70;;;3.63;;
54197;SDS011;40105;52.366;17.000;2023-05-10T03:43:06;23.73;;;4.43;;
54197;SDS011;40105;52.366;17.000;2023-05-10T03:45:32;13.70;;;4.07;;
54197;SDS011;40105;52.366;17.000;2023-05-10T03:47:57;7.77;;;4.27;;
54197;SDS011;40105;52.366;17.000;2023-05-10T03:50:23;9.63;;;3.35;;
54197;SDS011;40105;52.366;17.000;2023-05-10T03:52:48;10.97;;;3.67;;
54197;SDS011;40105;52.366;17.000;2023-05-10T03:55:13;12.60;;;4.23;;
54197;SDS011;40105;52.366;17.000;2023-05-10T03:57:38;8.30;;;4.57;;
54197;SDS011;40105;52.366;17.000;2023-05-10T04:00:04;12.97;;;3.63;;
54197;SDS011;40105;52.366;17.000;2023-05-10T04:02:29;9.82;;;4.43;;
54197;SDS011;40105;52.366;17.000;2023-05-10T04:04:55;14.95;;;3.83;;
54197;SDS011;40105;52.366;17.000;2023-05-10T04:07:20;10.00;;;3.53;;
54197;SDS011;40105;52.366;17.000;2023-05-10T04:09:45;17.10;;;4.03;;
54197;SDS011;40105;52.366;17.000;2023-05-10T04:12:10;15.67;;;3.77;;
54197;SDS011;40105;52.366;17.000;2023-05-10T04:14:35;6.90;;;4.00;;
54197;SDS011;40105;52.366;17.000;2023-05-10T04:17:01;13.03;;;4.30;;
54197;SDS011;40105;52.366;17.000;2023-05-10T04:19:29;11.83;;;4.47;;
54197;SDS011;40105;52.366;17.000;2023-05-10T04:21:55;15.88;;;4.15;;
54197;SDS011;40105;52.366;17.000;2023-05-10T04:24:20;10.90;;;3.57;;
54197;SDS011;40105;52.366;17.000;2023-05-10T04:26:45;7.30;;;4.00;;
54197;SDS011;40105;52.366;17.000;2023-05-10T04:29:10;5.87;;;3.23;;
54197;SDS011;40105;52.366;17.000;2023-05-10T04:31:35;11.83;;;4.30;;
54197;SDS011;40105;52.366;17.000;2023-05-10T04:34:01;18.45;;;5.03;;
54197;SDS011;40105;52.366;17.000;2023-05-10T04:36:26;13.40;;;5.00;;
54197;SDS011;40105;52.366;17.000;2023-05-10T04:38:52;25.25;;;5.05;;
54197;SDS011;40105;52.366;17.000;2023-05-10T04:41:17;12.48;;;4.32;;
54197;SDS011;40105;52.366;17.000;2023-05-10T04:43:42;9.43;;;3.80;;
54197;SDS011;40105;52.366;17.000;2023-05-10T04:46:08;14.80;;;4.50;;
54197;SDS011;40105;52.366;17.000;2023-05-10T04:48:33;12.07;;;3.57;;
54197;SDS011;40105;52.366;17.000;2023-05-10T04:50:58;30.77;;;5.65;;
54197;SDS011;40105;52.366;17.000;2023-05-10T04:53:23;20.67;;;4.53;;
54197;SDS011;40105;52.366;17.000;2023-05-10T04:55:48;29.50;;;5.10;;
54197;SDS011;40105;52.366;17.000;2023-05-10T04:58:14;13.73;;;4.70;;
54197;SDS011;40105;52.366;17.000;2023-05-10T05:00:39;13.70;;;3.90;;
54197;SDS011;40105;52.366;17.000;2023-05-10T05:03:04;11.83;;;3.87;;
54197;SDS011;40105;52.366;17.000;2023-05-10T05:05:30;9.07;;;4.38;;
54197;SDS011;40105;52.366;17.000;2023-05-10T05:07:55;14.07;;;3.83;;
54197;SDS011;40105;52.366;17.000;2023-05-10T05:10:20;55.40;;;5.47;;
54197;SDS011;40105;52.366;17.000;2023-05-10T05:12:45;11.47;;;3.80;;
54197;SDS011;40105;52.366;17.000;2023-05-10T05:15:10;29.87;;;5.07;;
54197;SDS011;40105;52.366;17.000;2023-05-10T05:17:36;12.00;;;4.30;;
54197;SDS011;40105;52.366;17.000;2023-05-10T05:20:01;17.63;;;4.80;;
54197;SDS011;40105;52.366;17.000;2023-05-10T05:22:26;13.20;;;3.85;;
54197;SDS011;40105;52.366;17.000;2023-05-10T05:24:54;27.10;;;5.68;;
54197;SDS011;40105;52.366;17.000;2023-05-10T05:27:20;25.92;;;4.72;;
54197;SDS011;40105;52.366;17.000;2023-05-10T05:29:52;13.02;;;4.45;;
54197;SDS011;40105;52.366;17.000;2023-05-10T05:32:17;7.30;;;3.95;;
54197;SDS011;40105;52.366;17.000;2023-05-10T05:34:44;15.00;;;4.30;;
54197;SDS011;40105;52.366;17.000;2023-05-10T05:37:12;12.57;;;4.80;;
54197;SDS011;40105;52.366;17.000;2023-05-10T05:39:37;10.52;;;4.43;;
54197;SDS011;40105;52.366;17.000;2023-05-10T05:42:02;9.60;;;5.07;;
54197;SDS011;40105;52.366;17.000;2023-05-10T05:44:27;28.07;;;5.00;;
54197;SDS011;40105;52.366;17.000;2023-05-10T05:46:53;18.00;;;4.93;;
54197;SDS011;40105;52.366;17.000;2023-05-10T05:49:18;23.43;;;4.47;;
54197;SDS011;40105;52.366;17.000;2023-05-10T05:51:44;9.73;;;4.25;;
54197;SDS011;40105;52.366;17.000;2023-05-10T05:54:09;12.18;;;4.53;;
54197;SDS011;40105;52.366;17.000;2023-05-10T05:56:35;6.83;;;3.63;;
54197;SDS011;40105;52.366;17.000;2023-05-10T05:59:00;9.03;;;4.30;;
54197;SDS011;40105;52.366;17.000;2023-05-10T06:01:25;11.17;;;4.10;;
54197;SDS011;40105;52.366;17.000;2023-05-10T06:03:50;16.33;;;4.40;;
54197;SDS011;40105;52.366;17.000;2023-05-10T06:06:15;10.53;;;4.67;;
54197;SDS011;40105;52.366;17.000;2023-05-10T06:08:40;17.40;;;4.20;;
54197;SDS011;40105;52.366;17.000;2023-05-10T06:11:06;12.25;;;4.40;;
54197;SDS011;40105;52.366;17.000;2023-05-10T06:13:31;21.13;;;4.43;;
54197;SDS011;40105;52.366;17.000;2023-05-10T06:15:58;10.23;;;4.40;;
54197;SDS011;40105;52.366;17.000;2023-05-10T06:18:23;25.75;;;6.45;;
54197;SDS011;40105;52.366;17.000;2023-05-10T06:20:49;9.43;;;5.18;;
54197;SDS011;40105;52.366;17.000;2023-05-10T06:23:14;7.88;;;3.63;;
54197;SDS011;40105;52.366;17.000;2023-05-10T06:25:39;7.17;;;3.57;;
54197;SDS011;40105;52.366;17.000;2023-05-10T06:28:05;17.05;;;3.90;;
54197;SDS011;40105;52.366;17.000;2023-05-10T06:30:30;12.40;;;4.07;;
54197;SDS011;40105;52.366;17.000;2023-05-10T06:32:55;9.90;;;4.15;;
54197;SDS011;40105;52.366;17.000;2023-05-10T06:35:20;13.73;;;4.23;;
54197;SDS011;40105;52.366;17.000;2023-05-10T06:37:46;11.57;;;5.00;;
54197;SDS011;40105;52.366;17.000;2023-05-10T06:40:11;25.80;;;5.28;;
54197;SDS011;40105;52.366;17.000;2023-05-10T06:42:38;20.55;;;5.15;;
54197;SDS011;40105;52.366;17.000;2023-05-10T06:45:03;7.30;;;3.33;;
54197;SDS011;40105;52.366;17.000;2023-05-10T06:47:30;13.82;;;4.40;;
54197;SDS011;40105;52.366;17.000;2023-05-10T06:49:55;11.33;;;3.60;;
54197;SDS011;40105;52.366;17.000;2023-05-10T06:52:20;12.02;;;4.30;;
54197;SDS011;40105;52.366;17.000;2023-05-10T06:54:46;14.90;;;4.70;;
54197;SDS011;40105;52.366;17.000;2023-05-10T06:57:11;18.00;;;4.03;;
54197;SDS011;40105;52.366;17.000;2023-05-10T06:59:36;10.07;;;4.50;;
54197;SDS011;40105;52.366;17.000;2023-05-10T07:02:01;10.33;;;3.73;;
54197;SDS011;40105;52.366;17.000;2023-05-10T07:04:27;10.23;;;3.85;;
54197;SDS011;40105;52.366;17.000;2023-05-10T07:06:52;8.20;;;3.63;;
54197;SDS011;40105;52.366;17.000;2023-05-10T07:09:18;8.98;;;3.65;;
54197;SDS011;40105;52.366;17.000;2023-05-10T07:11:43;11.90;;;3.93;;
54197;SDS011;40105;52.366;17.000;2023-05-10T07:14:08;13.57;;;3.63;;
54197;SDS011;40105;52.366;17.000;2023-05-10T07:16:33;15.30;;;3.87;;
54197;SDS011;40105;52.366;17.000;2023-05-10T07:18:58;8.97;;;3.87;;
54197;SDS011;40105;52.366;17.000;2023-05-10T07:21:23;10.37;;;3.80;;
54197;SDS011;40105;52.366;17.000;2023-05-10T07:23:49;15.25;;;3.55;;
54197;SDS011;40105;52.366;17.000;2023-05-10T07:26:14;7.78;;;3.55;;
54197;SDS011;40105;52.366;17.000;2023-05-10T07:28:40;16.63;;;3.80;;
54197;SDS011;40105;52.366;17.000;2023-05-10T07:31:05;9.27;;;4.03;;
54197;SDS011;40105;52.366;17.000;2023-05-10T07:33:30;12.37;;;3.70;;
54197;SDS011;40105;52.366;17.000;2023-05-10T07:35:56;7.40;;;3.10;;
54197;SDS011;40105;52.366;17.000;2023-05-10T07:38:21;14.67;;;4.63;;
54197;SDS011;40105;52.366;17.000;2023-05-10T07:40:46;5.53;;;2.67;;
54197;SDS011;40105;52.366;17.000;2023-05-10T07:43:11;13.20;;;3.85;;
54197;SDS011;40105;52.366;17.000;2023-05-10T07:45:37;10.70;;;3.47;;
54197;SDS011;40105;52.366;17.000;2023-05-10T07:48:02;7.83;;;2.77;;
54197;SDS011;40105;52.366;17.000;2023-05-10T07:50:27;7.83;;;3.70;;
54197;SDS011;40105;52.366;17.000;2023-05-10T07:52:52;7.70;;;2.97;;
54197;SDS011;40105;52.366;17.000;2023-05-10T07:55:18;14.13;;;3.50;;
54197;SDS011;40105;52.366;17.000;2023-05-10T07:57:43;7.60;;;3.13;;
54197;SDS011;40105;52.366;17.000;2023-05-10T08:00:08;10.40;;;3.27;;
54197;SDS011;40105;52.366;17.000;2023-05-10T08:02:35;12.48;;;3.13;;
54197;SDS011;40105;52.366;17.000;2023-05-10T08:05:00;9.60;;;3.47;;
54197;SDS011;40105;52.366;17.000;2023-05-10T08:07:25;17.05;;;3.45;;
54197;SDS011;40105;52.366;17.000;2023-05-10T08:09:50;10.67;;;3.30;;
54197;SDS011;40105;52.366;17.000;2023-05-10T08:12:15;8.63;;;3.43;;
54197;SDS011;40105;52.366;17.000;2023-05-10T08:14:41;11.00;;;3.70;;
54197;SDS011;40105;52.366;17.000;2023-05-10T08:17:06;10.83;;;3.17;;
54197;SDS011;40105;52.366;17.000;2023-05-10T08:19:31;8.97;;;2.57;;
54197;SDS011;40105;52.366;17.000;2023-05-10T08:21:57;7.35;;;2.58;;
54197;SDS011;40105;52.366;17.000;2023-05-10T08:24:22;10.53;;;3.53;;
54197;SDS011;40105;52.366;17.000;2023-05-10T08:26:47;12.50;;;2.90;;
54197;SDS011;40105;52.366;17.000;2023-05-10T08:29:13;10.17;;;3.00;;
54197;SDS011;40105;52.366;17.000;2023-05-10T08:31:38;6.05;;;2.63;;
54197;SDS011;40105;52.366;17.000;2023-05-10T08:34:03;8.70;;;2.80;;
54197;SDS011;40105;52.366;17.000;2023-05-10T08:36:28;4.67;;;2.30;;
54197;SDS011;40105;52.366;17.000;2023-05-10T08:38:54;7.77;;;2.57;;
54197;SDS011;40105;52.366;17.000;2023-05-10T08:41:20;6.90;;;2.67;;
54197;SDS011;40105;52.366;17.000;2023-05-10T08:43:46;88.82;;;4.90;;
54197;SDS011;40105;52.366;17.000;2023-05-10T08:46:11;16.58;;;2.70;;
54197;SDS011;40105;52.366;17.000;2023-05-10T08:48:39;13.48;;;2.13;;
54197;SDS011;40105;52.366;17.000;2023-05-10T08:51:05;5.40;;;2.50;;
54197;SDS011;40105;52.366;17.000;2023-05-10T08:53:31;17.42;;;3.28;;
54197;SDS011;40105;52.366;17.000;2023-05-10T08:55:57;5.55;;;2.65;;
54197;SDS011;40105;52.366;17.000;2023-05-10T08:58:23;9.77;;;2.50;;
54197;SDS011;40105;52.366;17.000;2023-05-10T09:00:48;7.47;;;2.70;;
54197;SDS011;40105;52.366;17.000;2023-05-10T09:03:14;4.43;;;2.05;;
54197;SDS011;40105;52.366;17.000;2023-05-10T09:05:39;3.63;;;1.70;;
54197;SDS011;40105;52.366;17.000;2023-05-10T09:08:06;5.35;;;1.70;;
54197;SDS011;40105;52.366;17.000;2023-05-10T09:10:32;13.75;;;2.10;;
54197;SDS011;40105;52.366;17.000;2023-05-10T09:12:57;11.30;;;2.25;;
54197;SDS011;40105;52.366;17.000;2023-05-10T09:15:23;5.72;;;2.05;;
54197;SDS011;40105;52.366;17.000;2023-05-10T09:17:48;2.72;;;1.45;;
54197;SDS011;40105;52.366;17.000;2023-05-10T09:20:14;4.13;;;1.58;;
54197;SDS011;40105;52.366;17.000;2023-05-10T09:22:39;3.27;;;1.60;;
54197;SDS011;40105;52.366;17.000;2023-05-10T09:25:12;6.43;;;1.80;;
54197;SDS011;40105;52.366;17.000;2023-05-10T09:27:38;5.78;;;1.70;;
54197;SDS011;40105;52.366;17.000;2023-05-10T09:30:05;14.00;;;2.00;;
54197;SDS011;40105;52.366;17.000;2023-05-10T09:35:20;5.25;;;1.55;;
54197;SDS011;40105;52.366;17.000;2023-05-10T09:37:47;13.80;;;1.65;;
54197;SDS011;40105;52.366;17.000;2023-05-10T09:42:38;18.03;;;1.97;;
54197;SDS011;40105;52.366;17.000;2023-05-10T09:45:03;2.23;;;1.27;;
54197;SDS011;40105;52.366;17.000;2023-05-10T09:47:29;7.43;;;1.85;;
54197;SDS011;40105;52.366;17.000;2023-05-10T09:49:56;5.60;;;1.88;;
54197;SDS011;40105;52.366;17.000;2023-05-10T09:52:27;10.43;;;2.03;;
54197;SDS011;40105;52.366;17.000;2023-05-10T09:54:53;18.47;;;2.00;;
54197;SDS011;40105;52.366;17.000;2023-05-10T09:57:20;8.63;;;1.77;;
54197;SDS011;40105;52.366;17.000;2023-05-10T09:59:45;10.18;;;1.95;;
54197;SDS011;40105;52.366;17.000;2023-05-10T10:02:11;5.25;;;2.10;;
54197;SDS011;40105;52.366;17.000;2023-05-10T10:04:40;18.20;;;2.17;;
54197;SDS011;40105;52.366;17.000;2023-05-10T10:07:05;4.78;;;2.10;;
54197;SDS011;40105;52.366;17.000;2023-05-10T10:09:31;12.27;;;2.90;;
54197;SDS011;40105;52.366;17.000;2023-05-10T10:11:57;11.65;;;1.73;;
54197;SDS011;40105;52.366;17.000;2023-05-10T10:14:22;24.80;;;2.47;;
54197;SDS011;40105;52.366;17.000;2023-05-10T10:16:49;48.80;;;3.00;;
54197;SDS011;40105;52.366;17.000;2023-05-10T10:19:14;44.53;;;3.08;;
54197;SDS011;40105;52.366;17.000;2023-05-10T10:21:40;14.68;;;2.03;;
54197;SDS011;40105;52.366;17.000;2023-05-10T10:24:05;9.73;;;2.03;;
54197;SDS011;40105;52.366;17.000;2023-05-10T10:26:32;7.05;;;1.33;;
54197;SDS011;40105;52.366;17.000;2023-05-10T10:29:59;3.85;;;1.67;;
54197;SDS011;40105;52.366;17.000;2023-05-10T10:36:46;8.57;;;1.45;;
54197;SDS011;40105;52.366;17.000;2023-05-10T10:39:12;4.35;;;1.73;;
54197;SDS011;40105;52.366;17.000;2023-05-10T10:41:49;13.77;;;1.52;;
54197;SDS011;40105;52.366;17.000;2023-05-10T10:54:58;31.13;;;2.78;;
54197;SDS011;40105;52.366;17.000;2023-05-10T10:57:24;5.38;;;2.35;;
54197;SDS011;40105;52.366;17.000;2023-05-10T10:59:51;4.47;;;1.48;;
54197;SDS011;40105;52.366;17.000;2023-05-10T11:05:00;8.85;;;1.92;;
54197;SDS011;40105;52.366;17.000;2023-05-10T11:07:55;2.80;;;1.40;;
54197;SDS011;40105;52.366;17.000;2023-05-10T11:10:21;5.13;;;1.60;;
54197;SDS011;40105;52.366;17.000;2023-05-10T11:15:18;13.52;;;1.90;;
54197;SDS011;40105;52.366;17.000;2023-05-10T11:17:44;12.00;;;2.60;;
54197;SDS011;40105;52.366;17.000;2023-05-10T11:20:14;2.97;;;1.50;;
54197;SDS011;40105;52.366;17.000;2023-05-10T11:22:49;11.23;;;1.55;;
54197;SDS011;40105;52.366;17.000;2023-05-10T11:25:15;7.38;;;2.08;;
54197;SDS011;40105;52.366;17.000;2023-05-10T11:27:41;7.33;;;1.93;;
54197;SDS011;40105;52.366;17.000;2023-05-10T11:30:06;6.10;;;2.03;;
54197;SDS011;40105;52.366;17.000;2023-05-10T11:32:32;4.90;;;1.77;;
54197;SDS011;40105;52.366;17.000;2023-05-10T11:34:57;11.33;;;1.97;;
54197;SDS011;40105;52.366;17.000;2023-05-10T11:37:23;17.53;;;2.20;;
54197;SDS011;40105;52.366;17.000;2023-05-10T11:39:48;8.50;;;1.93;;
54197;SDS011;40105;52.366;17.000;2023-05-10T11:42:13;3.20;;;1.73;;
54197;SDS011;40105;52.366;17.000;2023-05-10T11:44:38;23.00;;;2.60;;
54197;SDS011;40105;52.366;17.000;2023-05-10T11:47:04;14.13;;;3.30;;
54197;SDS011;40105;52.366;17.000;2023-05-10T11:49:30;5.13;;;1.60;;
54197;SDS011;40105;52.366;17.000;2023-05-10T11:52:07;10.97;;;1.90;;
54197;SDS011;40105;52.366;17.000;2023-05-10T11:54:33;19.45;;;1.95;;
54197;SDS011;40105;52.366;17.000;2023-05-10T11:56:59;11.52;;;1.25;;
54197;SDS011;40105;52.366;17.000;2023-05-10T11:59:25;6.97;;;1.88;;
54197;SDS011;40105;52.366;17.000;2023-05-10T12:01:50;3.17;;;1.90;;
54197;SDS011;40105;52.366;17.000;2023-05-10T12:04:15;14.88;;;1.50;;
54197;SDS011;40105;52.366;17.000;2023-05-10T12:06:41;17.13;;;1.90;;
54197;SDS011;40105;52.366;17.000;2023-05-10T12:09:06;13.97;;;1.67;;
54197;SDS011;40105;52.366;17.000;2023-05-10T12:11:35;6.40;;;2.20;;
54197;SDS011;40105;52.366;17.000;2023-05-10T12:14:03;17.50;;;1.80;;
54197;SDS011;40105;52.366;17.000;2023-05-10T12:16:29;4.40;;;1.63;;
54197;SDS011;40105;52.366;17.000;2023-05-10T12:18:58;4.80;;;1.50;;
54197;SDS011;40105;52.366;17.000;2023-05-10T12:21:24;5.65;;;1.98;;
54197;SDS011;40105;52.366;17.000;2023-05-10T12:23:51;3.80;;;1.95;;
54197;SDS011;40105;52.366;17.000;2023-05-10T12:26:16;10.70;;;2.28;;
54197;SDS011;40105;52.366;17.000;2023-05-10T12:28:42;11.85;;;2.75;;
54197;SDS011;40105;52.366;17.000;2023-05-10T12:31:07;8.70;;;1.80;;
54197;SDS011;40105;52.366;17.000;2023-05-10T12:33:36;9.38;;;2.28;;
54197;SDS011;40105;52.366;17.000;2023-05-10T12:36:04;5.15;;;1.73;;
54197;SDS011;40105;52.366;17.000;2023-05-10T12:38:31;11.77;;;1.60;;
54197;SDS011;40105;52.366;17.000;2023-05-10T12:40:57;3.35;;;1.77;;
54197;SDS011;40105;52.366;17.000;2023-05-10T12:43:23;8.98;;;1.83;;
54197;SDS011;40105;52.366;17.000;2023-05-10T12:45:48;2.63;;;1.40;;
54197;SDS011;40105;52.366;17.000;2023-05-10T12:48:14;6.83;;;1.90;;
54197;SDS011;40105;52.366;17.000;2023-05-10T12:50:39;4.35;;;1.65;;
54197;SDS011;40105;52.366;17.000;2023-05-10T12:53:04;11.03;;;2.10;;
54197;SDS011;40105;52.366;17.000;2023-05-10T12:55:30;11.47;;;2.10;;
54197;SDS011;40105;52.366;17.000;2023-05-10T12:57:55;3.50;;;2.00;;
54197;SDS011;40105;52.366;17.000;2023-05-10T13:00:20;14.47;;;2.20;;
54197;SDS011;40105;52.366;17.000;2023-05-10T13:02:45;12.82;;;2.10;;
54197;SDS011;40105;52.366;17.000;2023-05-10T13:05:11;10.93;;;2.03;;
54197;SDS011;40105;52.366;17.000;2023-05-10T13:07:37;13.90;;;1.73;;
54197;SDS011;40105;52.366;17.000;2023-05-10T13:10:03;6.03;;;2.03;;
54197;SDS011;40105;52.366;17.000;2023-05-10T13:12:28;5.05;;;2.08;;
54197;SDS011;40105;52.366;17.000;2023-05-10T13:14:54;6.88;;;1.75;;
54197;SDS011;40105;52.366;17.000;2023-05-10T13:17:19;7.53;;;1.97;;
54197;SDS011;40105;52.366;17.000;2023-05-10T13:19:44;4.57;;;1.70;;
54197;SDS011;40105;52.366;17.000;2023-05-10T13:22:10;4.43;;;1.77;;
54197;SDS011;40105;52.366;17.000;2023-05-10T13:24:35;8.27;;;1.93;;
54197;SDS011;40105;52.366;17.000;2023-05-10T13:27:00;18.23;;;1.90;;
54197;SDS011;40105;52.366;17.000;2023-05-10T13:29:25;10.63;;;2.37;;
54197;SDS011;40105;52.366;17.000;2023-05-10T13:31:50;9.83;;;2.07;;
54197;SDS011;40105;52.366;17.000;2023-05-10T13:34:16;11.20;;;2.13;;
54197;SDS011;40105;52.366;17.000;2023-05-10T13:36:41;4.95;;;1.95;;
54197;SDS011;40105;52.366;17.000;2023-05-10T13:39:06;6.32;;;2.03;;
54197;SDS011;40105;52.366;17.000;2023-05-10T13:41:32;7.17;;;1.67;;
54197;SDS011;40105;52.366;17.000;2023-05-10T13:43:57;4.87;;;1.67;;
54197;SDS011;40105;52.366;17.000;2023-05-10T13:46:22;2.47;;;1.70;;
54197;SDS011;40105;52.366;17.000;2023-05-10T13:48:48;12.27;;;2.17;;
54197;SDS011;40105;52.366;17.000;2023-05-10T13:51:13;20.10;;;2.70;;
54197;SDS011;40105;52.366;17.000;2023-05-10T13:53:38;9.15;;;2.05;;
54197;SDS011;40105;52.366;17.000;2023-05-10T13:56:03;7.87;;;1.93;;
54197;SDS011;40105;52.366;17.000;2023-05-10T13:58:29;2.93;;;1.93;;
54197;SDS011;40105;52.366;17.000;2023-05-10T14:00:55;6.30;;;2.10;;
54197;SDS011;40105;52.366;17.000;2023-05-10T14:03:20;6.00;;;2.15;;
54197;SDS011;40105;52.366;17.000;2023-05-10T14:05:46;5.93;;;1.80;;
54197;SDS011;40105;52.366;17.000;2023-05-10T14:08:12;7.82;;;2.58;;
54197;SDS011;40105;52.366;17.000;2023-05-10T14:10:38;21.77;;;2.25;;
54197;SDS011;40105;52.366;17.000;2023-05-10T14:13:03;5.80;;;1.70;;
54197;SDS011;40105;52.366;17.000;2023-05-10T14:15:28;13.63;;;2.30;;
54197;SDS011;40105;52.366;17.000;2023-05-10T14:17:53;4.43;;;2.00;;
54197;SDS011;40105;52.366;17.000;2023-05-10T14:20:18;8.00;;;2.60;;
54197;SDS011;40105;52.366;17.000;2023-05-10T14:22:44;8.23;;;2.40;;
54197;SDS011;40105;52.366;17.000;2023-05-10T14:25:09;15.03;;;2.43;;
54197;SDS011;40105;52.366;17.000;2023-05-10T14:27:34;8.30;;;2.23;;
54197;SDS011;40105;52.366;17.000;2023-05-10T14:29:59;12.97;;;2.33;;
54197;SDS011;40105;52.366;17.000;2023-05-10T14:32:24;3.53;;;2.13;;
54197;SDS011;40105;52.366;17.000;2023-05-10T14:34:51;3.95;;;2.40;;
54197;SDS011;40105;52.366;17.000;2023-05-10T14:37:17;9.03;;;2.20;;
54197;SDS011;40105;52.366;17.000;2023-05-10T14:39:42;29.47;;;2.73;;
54197;SDS011;40105;52.366;17.000;2023-05-10T14:42:07;12.02;;;2.75;;
54197;SDS011;40105;52.366;17.000;2023-05-10T14:44:33;6.47;;;1.88;;
54197;SDS011;40105;52.366;17.000;2023-05-10T14:46:58;12.07;;;2.80;;
54197;SDS011;40105;52.366;17.000;2023-05-10T14:49:23;6.97;;;1.92;;
54197;SDS011;40105;52.366;17.000;2023-05-10T14:51:50;10.02;;;1.95;;
54197;SDS011;40105;52.366;17.000;2023-05-10T14:54:15;6.17;;;2.10;;
54197;SDS011;40105;52.366;17.000;2023-05-10T14:56:41;8.23;;;3.00;;
54197;SDS011;40105;52.366;17.000;2023-05-10T14:59:06;10.85;;;2.58;;
54197;SDS011;40105;52.366;17.000;2023-05-10T15:01:32;3.30;;;1.87;;
54197;SDS011;40105;52.366;17.000;2023-05-10T15:03:57;13.13;;;2.50;;
54197;SDS011;40105;52.366;17.000;2023-05-10T15:06:23;6.38;;;2.75;;
54197;SDS011;40105;52.366;17.000;2023-05-10T15:08:49;9.00;;;1.70;;
54197;SDS011;40105;52.366;17.000;2023-05-10T15:11:15;3.95;;;2.05;;
54197;SDS011;40105;52.366;17.000;2023-05-10T15:13:40;9.33;;;2.07;;
54197;SDS011;40105;52.366;17.000;2023-05-10T15:16:05;6.53;;;1.90;;